Aeroporto :
LOGIN :

Iscrizione | Disclaimer

   EN    FR    IT 

 










Sommario :    VFR   VFR Marginale   IFR   IFR Intensivo   IFR Molto Intensivo
Visibilità : 
Base nubi : 
>= 8 km
>= 3000ft
5 / 8 km
1000 / 3000 ft
1500m / 5 km
500 / 1000 ft
800 / 1500m
200 / 500 ft
< 800m
< 200 ft
Simboli :   Temporali  Nebbia  Neve Forte  Precipitazioni Forti  Vento > 20 kt
SIGMETs :   Varie  Temporali  Ghiacco  Turbolenza  Onda orograficha  Ceneri Vulcaniche






- Altitudine del aeroporto : 245 ft


ETHS - Fassberg

ULTIMO METAR :
  • 220920Z 30007KT 1000 -DZ BR OVC001 04/04 Q1033 RED YLO TEMPO RED

METARs OBSOLETI :
  • 220820Z 29006KT 0800 -DZ FG OVC001 04/03 Q1032 RED YLO TEMPO RED

TAF TAF ETHS
Valido dal 22 a 09 ore il 22 a 18 ore UTC


220819Z 2209/2218 29008KT 2500 -DZ OVC004
TEMPO 2209/2212 29008KT 0700 FG OVC001
BECMG 2212/2214 30008KT 6000 NSW SCT005 BKN012
TEMPO 2214/2217 30007KT 8000 NSW SCT005 SCT012



MetMap, La meteo Aeronautica in un colpo d'occhio ! - Copyright ORBIFLY Dicembre 2007 - Disclaimer

ORBIFLY MET'MAP TEAM :

Programmazione e sviluppo : Alexandra Zaïnal
Concezione : Baudouin d'Aumeries
Aiuto per la programmazione : Marc-Olivier Méhu
Supporto tecnico e logistico : Manuel Goepfert
Aiuto per la traduzione : Arnaldo La Scala

Contatto : metmap@orbifly.com




FONTI E CREDITI :

   NOAA